sensor_id;sensor_type;location;lat;lon;timestamp;P1;durP1;ratioP1;P2;durP2;ratioP2
36191;SDS011;22233;42.708;23.360;2022-12-07T00:02:14;17.05;;;7.88;;
36191;SDS011;22233;42.708;23.360;2022-12-07T00:04:39;15.40;;;7.57;;
36191;SDS011;22233;42.708;23.360;2022-12-07T00:07:05;16.63;;;8.43;;
36191;SDS011;22233;42.708;23.360;2022-12-07T00:09:30;17.42;;;8.63;;
36191;SDS011;22233;42.708;23.360;2022-12-07T00:11:56;15.23;;;7.55;;
36191;SDS011;22233;42.708;23.360;2022-12-07T00:14:21;19.00;;;8.85;;
36191;SDS011;22233;42.708;23.360;2022-12-07T00:16:48;16.55;;;8.05;;
36191;SDS011;22233;42.708;23.360;2022-12-07T00:19:15;13.55;;;7.00;;
36191;SDS011;22233;42.708;23.360;2022-12-07T00:21:40;16.95;;;7.38;;
36191;SDS011;22233;42.708;23.360;2022-12-07T00:24:06;17.00;;;7.03;;
36191;SDS011;22233;42.708;23.360;2022-12-07T00:26:33;11.38;;;6.22;;
36191;SDS011;22233;42.708;23.360;2022-12-07T00:29:01;13.52;;;6.55;;
36191;SDS011;22233;42.708;23.360;2022-12-07T00:31:30;21.50;;;9.52;;
36191;SDS011;22233;42.708;23.360;2022-12-07T00:33:58;14.43;;;7.57;;
36191;SDS011;22233;42.708;23.360;2022-12-07T00:36:24;14.50;;;7.70;;
36191;SDS011;22233;42.708;23.360;2022-12-07T00:38:50;18.23;;;7.88;;
36191;SDS011;22233;42.708;23.360;2022-12-07T00:41:17;16.98;;;8.10;;
36191;SDS011;22233;42.708;23.360;2022-12-07T00:43:45;19.98;;;7.55;;
36191;SDS011;22233;42.708;23.360;2022-12-07T00:46:13;16.77;;;6.88;;
36191;SDS011;22233;42.708;23.360;2022-12-07T00:48:39;15.70;;;7.93;;
36191;SDS011;22233;42.708;23.360;2022-12-07T00:51:05;18.15;;;8.05;;
36191;SDS011;22233;42.708;23.360;2022-12-07T00:53:38;15.82;;;7.10;;
36191;SDS011;22233;42.708;23.360;2022-12-07T00:56:08;13.63;;;7.20;;
36191;SDS011;22233;42.708;23.360;2022-12-07T00:58:36;14.50;;;6.80;;
36191;SDS011;22233;42.708;23.360;2022-12-07T01:01:02;13.50;;;7.15;;
36191;SDS011;22233;42.708;23.360;2022-12-07T01:03:29;12.05;;;6.22;;
36191;SDS011;22233;42.708;23.360;2022-12-07T01:05:55;15.38;;;7.63;;
36191;SDS011;22233;42.708;23.360;2022-12-07T01:08:21;16.17;;;6.75;;
36191;SDS011;22233;42.708;23.360;2022-12-07T01:13:14;12.35;;;5.70;;
36191;SDS011;22233;42.708;23.360;2022-12-07T01:15:41;13.63;;;6.97;;
36191;SDS011;22233;42.708;23.360;2022-12-07T01:18:07;13.73;;;6.60;;
36191;SDS011;22233;42.708;23.360;2022-12-07T01:20:33;15.02;;;6.65;;
36191;SDS011;22233;42.708;23.360;2022-12-07T01:22:59;11.25;;;5.72;;
36191;SDS011;22233;42.708;23.360;2022-12-07T01:25:24;12.27;;;6.25;;
36191;SDS011;22233;42.708;23.360;2022-12-07T01:27:49;13.13;;;6.75;;
36191;SDS011;22233;42.708;23.360;2022-12-07T01:30:15;14.25;;;7.50;;
36191;SDS011;22233;42.708;23.360;2022-12-07T01:32:40;16.50;;;8.00;;
36191;SDS011;22233;42.708;23.360;2022-12-07T01:35:06;13.68;;;6.80;;
36191;SDS011;22233;42.708;23.360;2022-12-07T01:37:35;12.50;;;6.10;;
36191;SDS011;22233;42.708;23.360;2022-12-07T01:40:02;12.90;;;6.38;;
36191;SDS011;22233;42.708;23.360;2022-12-07T01:42:29;10.35;;;6.10;;
36191;SDS011;22233;42.708;23.360;2022-12-07T01:47:57;16.95;;;6.85;;
36191;SDS011;22233;42.708;23.360;2022-12-07T01:50:24;11.85;;;6.68;;
36191;SDS011;22233;42.708;23.360;2022-12-07T01:52:52;15.60;;;7.03;;
36191;SDS011;22233;42.708;23.360;2022-12-07T01:55:21;12.13;;;6.88;;
36191;SDS011;22233;42.708;23.360;2022-12-07T01:57:47;11.80;;;6.93;;
36191;SDS011;22233;42.708;23.360;2022-12-07T02:00:15;13.90;;;7.22;;
36191;SDS011;22233;42.708;23.360;2022-12-07T02:05:17;13.77;;;7.20;;
36191;SDS011;22233;42.708;23.360;2022-12-07T02:07:43;14.40;;;6.65;;
36191;SDS011;22233;42.708;23.360;2022-12-07T02:10:18;10.85;;;6.78;;
36191;SDS011;22233;42.708;23.360;2022-12-07T02:12:50;13.10;;;6.65;;
36191;SDS011;22233;42.708;23.360;2022-12-07T02:15:25;11.95;;;7.05;;
36191;SDS011;22233;42.708;23.360;2022-12-07T02:18:05;11.45;;;6.35;;
36191;SDS011;22233;42.708;23.360;2022-12-07T02:31:37;13.63;;;7.20;;
36191;SDS011;22233;42.708;23.360;2022-12-07T02:34:11;11.00;;;5.85;;
36191;SDS011;22233;42.708;23.360;2022-12-07T02:36:46;13.32;;;5.90;;
36191;SDS011;22233;42.708;23.360;2022-12-07T02:39:24;10.88;;;6.50;;
36191;SDS011;22233;42.708;23.360;2022-12-07T02:42:00;11.10;;;5.38;;
36191;SDS011;22233;42.708;23.360;2022-12-07T02:44:32;15.40;;;7.18;;
36191;SDS011;22233;42.708;23.360;2022-12-07T02:47:02;13.57;;;6.05;;
36191;SDS011;22233;42.708;23.360;2022-12-07T02:49:30;13.82;;;5.70;;
36191;SDS011;22233;42.708;23.360;2022-12-07T02:51:57;19.08;;;6.22;;
36191;SDS011;22233;42.708;23.360;2022-12-07T02:54:23;11.57;;;6.38;;
36191;SDS011;22233;42.708;23.360;2022-12-07T02:56:50;15.95;;;7.03;;
36191;SDS011;22233;42.708;23.360;2022-12-07T02:59:35;11.50;;;5.05;;
36191;SDS011;22233;42.708;23.360;2022-12-07T03:05:35;14.90;;;6.03;;
36191;SDS011;22233;42.708;23.360;2022-12-07T03:11:08;15.55;;;6.75;;
36191;SDS011;22233;42.708;23.360;2022-12-07T03:16:32;13.98;;;7.22;;
36191;SDS011;22233;42.708;23.360;2022-12-07T03:19:08;14.50;;;6.90;;
36191;SDS011;22233;42.708;23.360;2022-12-07T03:21:41;13.18;;;7.10;;
36191;SDS011;22233;42.708;23.360;2022-12-07T03:24:12;13.30;;;6.72;;
36191;SDS011;22233;42.708;23.360;2022-12-07T03:26:43;13.32;;;6.78;;
36191;SDS011;22233;42.708;23.360;2022-12-07T03:29:19;14.30;;;7.07;;
36191;SDS011;22233;42.708;23.360;2022-12-07T03:31:51;13.73;;;7.10;;
36191;SDS011;22233;42.708;23.360;2022-12-07T03:34:50;19.63;;;8.73;;
36191;SDS011;22233;42.708;23.360;2022-12-07T03:42:48;14.43;;;7.25;;
36191;SDS011;22233;42.708;23.360;2022-12-07T03:45:15;12.45;;;6.25;;
36191;SDS011;22233;42.708;23.360;2022-12-07T03:53:01;15.13;;;6.95;;
36191;SDS011;22233;42.708;23.360;2022-12-07T03:55:47;13.23;;;6.50;;
36191;SDS011;22233;42.708;23.360;2022-12-07T03:58:15;11.90;;;6.60;;
36191;SDS011;22233;42.708;23.360;2022-12-07T04:00:45;13.70;;;6.85;;
36191;SDS011;22233;42.708;23.360;2022-12-07T04:03:12;11.45;;;6.00;;
36191;SDS011;22233;42.708;23.360;2022-12-07T04:05:37;14.55;;;7.22;;
36191;SDS011;22233;42.708;23.360;2022-12-07T04:08:04;14.10;;;5.97;;
36191;SDS011;22233;42.708;23.360;2022-12-07T04:10:29;12.73;;;6.90;;
36191;SDS011;22233;42.708;23.360;2022-12-07T04:12:55;19.92;;;7.78;;
36191;SDS011;22233;42.708;23.360;2022-12-07T04:15:21;13.45;;;6.32;;
36191;SDS011;22233;42.708;23.360;2022-12-07T04:17:46;14.18;;;7.03;;
36191;SDS011;22233;42.708;23.360;2022-12-07T04:20:12;10.63;;;6.22;;
36191;SDS011;22233;42.708;23.360;2022-12-07T04:22:37;13.90;;;6.10;;
36191;SDS011;22233;42.708;23.360;2022-12-07T04:25:03;14.32;;;6.25;;
36191;SDS011;22233;42.708;23.360;2022-12-07T04:27:29;12.38;;;5.63;;
36191;SDS011;22233;42.708;23.360;2022-12-07T04:29:54;11.00;;;5.80;;
36191;SDS011;22233;42.708;23.360;2022-12-07T04:32:20;12.88;;;6.80;;
36191;SDS011;22233;42.708;23.360;2022-12-07T04:34:46;13.05;;;7.18;;
36191;SDS011;22233;42.708;23.360;2022-12-07T04:37:12;12.63;;;5.88;;
36191;SDS011;22233;42.708;23.360;2022-12-07T04:39:37;14.15;;;6.15;;
36191;SDS011;22233;42.708;23.360;2022-12-07T04:42:02;14.77;;;7.18;;
36191;SDS011;22233;42.708;23.360;2022-12-07T04:44:28;12.13;;;6.78;;
36191;SDS011;22233;42.708;23.360;2022-12-07T04:46:54;17.80;;;7.53;;
36191;SDS011;22233;42.708;23.360;2022-12-07T04:49:22;13.57;;;7.75;;
36191;SDS011;22233;42.708;23.360;2022-12-07T04:51:48;12.43;;;7.25;;
36191;SDS011;22233;42.708;23.360;2022-12-07T04:54:14;11.23;;;6.78;;
36191;SDS011;22233;42.708;23.360;2022-12-07T04:56:40;14.63;;;7.28;;
36191;SDS011;22233;42.708;23.360;2022-12-07T04:59:06;15.13;;;7.13;;
36191;SDS011;22233;42.708;23.360;2022-12-07T05:01:31;14.18;;;6.75;;
36191;SDS011;22233;42.708;23.360;2022-12-07T05:03:57;11.93;;;7.22;;
36191;SDS011;22233;42.708;23.360;2022-12-07T05:06:23;11.43;;;6.70;;
36191;SDS011;22233;42.708;23.360;2022-12-07T05:08:48;13.75;;;7.03;;
36191;SDS011;22233;42.708;23.360;2022-12-07T05:11:14;16.73;;;6.90;;
36191;SDS011;22233;42.708;23.360;2022-12-07T05:14:00;14.95;;;7.07;;
36191;SDS011;22233;42.708;23.360;2022-12-07T05:16:27;17.25;;;8.95;;
36191;SDS011;22233;42.708;23.360;2022-12-07T05:18:53;16.55;;;8.57;;
36191;SDS011;22233;42.708;23.360;2022-12-07T05:21:19;17.67;;;7.80;;
36191;SDS011;22233;42.708;23.360;2022-12-07T05:23:44;19.42;;;9.85;;
36191;SDS011;22233;42.708;23.360;2022-12-07T05:26:09;17.85;;;8.30;;
36191;SDS011;22233;42.708;23.360;2022-12-07T05:28:35;17.90;;;9.45;;
36191;SDS011;22233;42.708;23.360;2022-12-07T05:31:00;21.48;;;9.75;;
36191;SDS011;22233;42.708;23.360;2022-12-07T05:33:26;23.13;;;9.48;;
36191;SDS011;22233;42.708;23.360;2022-12-07T05:35:51;20.20;;;10.15;;
36191;SDS011;22233;42.708;23.360;2022-12-07T05:38:16;20.23;;;10.07;;
36191;SDS011;22233;42.708;23.360;2022-12-07T05:40:42;16.20;;;8.80;;
36191;SDS011;22233;42.708;23.360;2022-12-07T05:43:07;21.35;;;10.40;;
36191;SDS011;22233;42.708;23.360;2022-12-07T05:45:33;21.85;;;9.48;;
36191;SDS011;22233;42.708;23.360;2022-12-07T05:47:58;21.58;;;10.18;;
36191;SDS011;22233;42.708;23.360;2022-12-07T05:50:24;17.40;;;9.23;;
36191;SDS011;22233;42.708;23.360;2022-12-07T05:52:49;23.63;;;10.65;;
36191;SDS011;22233;42.708;23.360;2022-12-07T05:55:15;17.52;;;9.55;;
36191;SDS011;22233;42.708;23.360;2022-12-07T05:57:40;19.90;;;11.15;;
36191;SDS011;22233;42.708;23.360;2022-12-07T06:00:26;21.42;;;11.82;;
36191;SDS011;22233;42.708;23.360;2022-12-07T06:02:51;18.92;;;12.02;;
36191;SDS011;22233;42.708;23.360;2022-12-07T06:05:16;24.42;;;12.38;;
36191;SDS011;22233;42.708;23.360;2022-12-07T06:07:42;21.63;;;12.10;;
36191;SDS011;22233;42.708;23.360;2022-12-07T06:10:07;28.95;;;15.73;;
36191;SDS011;22233;42.708;23.360;2022-12-07T06:12:33;22.67;;;12.77;;
36191;SDS011;22233;42.708;23.360;2022-12-07T06:14:58;28.38;;;14.27;;
36191;SDS011;22233;42.708;23.360;2022-12-07T06:17:24;24.85;;;14.20;;
36191;SDS011;22233;42.708;23.360;2022-12-07T06:19:50;24.73;;;12.50;;
36191;SDS011;22233;42.708;23.360;2022-12-07T06:22:15;20.90;;;12.18;;
36191;SDS011;22233;42.708;23.360;2022-12-07T06:24:41;23.55;;;11.93;;
36191;SDS011;22233;42.708;23.360;2022-12-07T06:27:07;20.05;;;9.80;;
36191;SDS011;22233;42.708;23.360;2022-12-07T06:29:33;20.05;;;10.82;;
36191;SDS011;22233;42.708;23.360;2022-12-07T06:31:59;24.25;;;11.20;;
36191;SDS011;22233;42.708;23.360;2022-12-07T06:34:25;24.52;;;12.30;;
36191;SDS011;22233;42.708;23.360;2022-12-07T06:36:51;29.35;;;13.35;;
36191;SDS011;22233;42.708;23.360;2022-12-07T06:39:20;28.73;;;14.52;;
36191;SDS011;22233;42.708;23.360;2022-12-07T06:41:47;26.23;;;12.90;;
36191;SDS011;22233;42.708;23.360;2022-12-07T06:44:13;21.70;;;12.20;;
36191;SDS011;22233;42.708;23.360;2022-12-07T06:46:39;21.92;;;12.38;;
36191;SDS011;22233;42.708;23.360;2022-12-07T06:49:04;26.65;;;11.82;;
36191;SDS011;22233;42.708;23.360;2022-12-07T06:51:30;22.80;;;12.82;;
36191;SDS011;22233;42.708;23.360;2022-12-07T06:53:57;30.50;;;15.70;;
36191;SDS011;22233;42.708;23.360;2022-12-07T06:56:22;31.02;;;16.20;;
36191;SDS011;22233;42.708;23.360;2022-12-07T06:58:48;40.53;;;20.13;;
36191;SDS011;22233;42.708;23.360;2022-12-07T07:01:15;43.63;;;19.80;;
36191;SDS011;22233;42.708;23.360;2022-12-07T07:03:42;43.10;;;20.05;;
36191;SDS011;22233;42.708;23.360;2022-12-07T07:06:09;38.90;;;18.38;;
36191;SDS011;22233;42.708;23.360;2022-12-07T07:08:36;32.45;;;17.13;;
36191;SDS011;22233;42.708;23.360;2022-12-07T07:11:03;31.20;;;16.23;;
36191;SDS011;22233;42.708;23.360;2022-12-07T07:13:29;31.90;;;14.52;;
36191;SDS011;22233;42.708;23.360;2022-12-07T07:15:54;25.35;;;13.35;;
36191;SDS011;22233;42.708;23.360;2022-12-07T07:18:20;23.85;;;13.50;;
36191;SDS011;22233;42.708;23.360;2022-12-07T07:20:45;45.22;;;20.48;;
36191;SDS011;22233;42.708;23.360;2022-12-07T07:23:11;60.28;;;21.77;;
36191;SDS011;22233;42.708;23.360;2022-12-07T07:25:36;59.85;;;23.45;;
36191;SDS011;22233;42.708;23.360;2022-12-07T07:28:02;42.80;;;19.80;;
36191;SDS011;22233;42.708;23.360;2022-12-07T07:30:28;35.90;;;17.60;;
36191;SDS011;22233;42.708;23.360;2022-12-07T07:33:00;28.27;;;14.02;;
36191;SDS011;22233;42.708;23.360;2022-12-07T07:35:27;27.05;;;14.18;;
36191;SDS011;22233;42.708;23.360;2022-12-07T07:37:54;33.97;;;15.45;;
36191;SDS011;22233;42.708;23.360;2022-12-07T07:40:20;35.78;;;18.63;;
36191;SDS011;22233;42.708;23.360;2022-12-07T07:42:52;32.67;;;17.40;;
36191;SDS011;22233;42.708;23.360;2022-12-07T07:45:19;28.02;;;15.73;;
36191;SDS011;22233;42.708;23.360;2022-12-07T07:47:46;29.50;;;13.93;;
36191;SDS011;22233;42.708;23.360;2022-12-07T07:50:12;28.60;;;14.93;;
36191;SDS011;22233;42.708;23.360;2022-12-07T07:52:37;27.02;;;14.60;;
36191;SDS011;22233;42.708;23.360;2022-12-07T07:55:03;25.58;;;15.13;;
36191;SDS011;22233;42.708;23.360;2022-12-07T07:57:29;28.30;;;14.77;;
36191;SDS011;22233;42.708;23.360;2022-12-07T07:59:54;27.48;;;13.25;;
36191;SDS011;22233;42.708;23.360;2022-12-07T08:02:20;26.65;;;13.68;;
36191;SDS011;22233;42.708;23.360;2022-12-07T08:04:45;25.65;;;13.65;;
36191;SDS011;22233;42.708;23.360;2022-12-07T08:07:11;23.25;;;13.02;;
36191;SDS011;22233;42.708;23.360;2022-12-07T08:09:38;26.63;;;13.23;;
36191;SDS011;22233;42.708;23.360;2022-12-07T08:12:04;23.88;;;12.40;;
36191;SDS011;22233;42.708;23.360;2022-12-07T08:14:30;22.83;;;12.43;;
36191;SDS011;22233;42.708;23.360;2022-12-07T08:16:56;24.98;;;11.70;;
36191;SDS011;22233;42.708;23.360;2022-12-07T08:19:22;20.25;;;10.55;;
36191;SDS011;22233;42.708;23.360;2022-12-07T08:21:47;14.75;;;8.35;;
36191;SDS011;22233;42.708;23.360;2022-12-07T08:24:13;21.48;;;10.43;;
36191;SDS011;22233;42.708;23.360;2022-12-07T08:26:39;21.70;;;10.40;;
36191;SDS011;22233;42.708;23.360;2022-12-07T08:29:05;18.77;;;9.20;;
36191;SDS011;22233;42.708;23.360;2022-12-07T08:31:30;21.05;;;10.23;;
36191;SDS011;22233;42.708;23.360;2022-12-07T08:33:56;18.63;;;8.90;;
36191;SDS011;22233;42.708;23.360;2022-12-07T08:36:22;18.52;;;9.52;;
36191;SDS011;22233;42.708;23.360;2022-12-07T08:38:48;20.05;;;10.40;;
36191;SDS011;22233;42.708;23.360;2022-12-07T08:41:13;16.92;;;9.25;;
36191;SDS011;22233;42.708;23.360;2022-12-07T08:43:39;17.25;;;9.52;;
36191;SDS011;22233;42.708;23.360;2022-12-07T08:48:41;18.63;;;8.60;;
36191;SDS011;22233;42.708;23.360;2022-12-07T08:51:13;16.92;;;8.88;;
36191;SDS011;22233;42.708;23.360;2022-12-07T08:53:38;16.33;;;9.27;;
36191;SDS011;22233;42.708;23.360;2022-12-07T08:56:05;21.67;;;9.40;;
36191;SDS011;22233;42.708;23.360;2022-12-07T08:58:32;20.33;;;10.55;;
36191;SDS011;22233;42.708;23.360;2022-12-07T09:00:59;21.83;;;9.60;;
36191;SDS011;22233;42.708;23.360;2022-12-07T09:03:24;21.00;;;9.25;;
36191;SDS011;22233;42.708;23.360;2022-12-07T09:05:49;18.75;;;10.20;;
36191;SDS011;22233;42.708;23.360;2022-12-07T09:08:15;16.48;;;9.63;;
36191;SDS011;22233;42.708;23.360;2022-12-07T09:10:41;18.27;;;10.30;;
36191;SDS011;22233;42.708;23.360;2022-12-07T09:13:06;17.33;;;8.60;;
36191;SDS011;22233;42.708;23.360;2022-12-07T09:15:32;18.88;;;9.15;;
36191;SDS011;22233;42.708;23.360;2022-12-07T09:17:58;17.85;;;8.85;;
36191;SDS011;22233;42.708;23.360;2022-12-07T09:20:23;18.42;;;9.18;;
36191;SDS011;22233;42.708;23.360;2022-12-07T09:22:49;21.63;;;10.63;;
36191;SDS011;22233;42.708;23.360;2022-12-07T09:25:14;20.30;;;11.18;;
36191;SDS011;22233;42.708;23.360;2022-12-07T09:27:39;17.15;;;8.63;;
36191;SDS011;22233;42.708;23.360;2022-12-07T09:30:06;16.55;;;9.23;;
36191;SDS011;22233;42.708;23.360;2022-12-07T09:32:32;23.48;;;9.73;;
36191;SDS011;22233;42.708;23.360;2022-12-07T09:34:57;19.90;;;10.40;;
36191;SDS011;22233;42.708;23.360;2022-12-07T09:37:23;19.27;;;8.70;;
36191;SDS011;22233;42.708;23.360;2022-12-07T09:39:48;16.33;;;8.50;;
36191;SDS011;22233;42.708;23.360;2022-12-07T09:42:59;19.67;;;10.73;;
36191;SDS011;22233;42.708;23.360;2022-12-07T09:45:05;22.25;;;11.02;;
36191;SDS011;22233;42.708;23.360;2022-12-07T09:47:32;24.92;;;11.95;;
36191;SDS011;22233;42.708;23.360;2022-12-07T09:50:06;18.35;;;10.55;;
36191;SDS011;22233;42.708;23.360;2022-12-07T09:52:38;18.35;;;9.80;;
36191;SDS011;22233;42.708;23.360;2022-12-07T09:55:03;17.05;;;8.65;;
36191;SDS011;22233;42.708;23.360;2022-12-07T09:57:38;17.48;;;8.40;;
36191;SDS011;22233;42.708;23.360;2022-12-07T10:00:05;18.90;;;9.45;;
36191;SDS011;22233;42.708;23.360;2022-12-07T10:05:01;18.88;;;9.75;;
36191;SDS011;22233;42.708;23.360;2022-12-07T10:07:31;17.55;;;8.75;;
36191;SDS011;22233;42.708;23.360;2022-12-07T10:09:57;24.23;;;10.50;;
36191;SDS011;22233;42.708;23.360;2022-12-07T10:12:23;21.02;;;10.13;;
36191;SDS011;22233;42.708;23.360;2022-12-07T10:15:00;17.23;;;9.27;;
36191;SDS011;22233;42.708;23.360;2022-12-07T10:17:29;18.95;;;8.80;;
36191;SDS011;22233;42.708;23.360;2022-12-07T10:20:21;13.80;;;8.75;;
36191;SDS011;22233;42.708;23.360;2022-12-07T10:23:03;12.93;;;7.20;;
36191;SDS011;22233;42.708;23.360;2022-12-07T10:25:31;16.00;;;6.72;;
36191;SDS011;22233;42.708;23.360;2022-12-07T10:30:45;14.63;;;6.80;;
36191;SDS011;22233;42.708;23.360;2022-12-07T10:33:36;13.35;;;6.97;;
36191;SDS011;22233;42.708;23.360;2022-12-07T10:36:19;14.18;;;8.00;;
36191;SDS011;22233;42.708;23.360;2022-12-07T10:39:00;14.48;;;7.32;;
36191;SDS011;22233;42.708;23.360;2022-12-07T10:41:26;11.07;;;6.20;;
36191;SDS011;22233;42.708;23.360;2022-12-07T10:43:52;13.20;;;7.15;;
36191;SDS011;22233;42.708;23.360;2022-12-07T10:52:10;13.45;;;7.80;;
36191;SDS011;22233;42.708;23.360;2022-12-07T11:00:25;15.05;;;7.63;;
36191;SDS011;22233;42.708;23.360;2022-12-07T11:11:14;15.35;;;7.43;;
36191;SDS011;22233;42.708;23.360;2022-12-07T11:13:48;17.33;;;7.95;;
36191;SDS011;22233;42.708;23.360;2022-12-07T11:16:46;13.15;;;7.55;;
36191;SDS011;22233;42.708;23.360;2022-12-07T11:22:08;13.55;;;6.47;;
36191;SDS011;22233;42.708;23.360;2022-12-07T11:30:00;9.57;;;5.47;;
36191;SDS011;22233;42.708;23.360;2022-12-07T11:37:42;9.73;;;5.10;;
36191;SDS011;22233;42.708;23.360;2022-12-07T11:43:22;11.25;;;5.55;;
36191;SDS011;22233;42.708;23.360;2022-12-07T11:48:25;8.90;;;5.35;;
36191;SDS011;22233;42.708;23.360;2022-12-07T11:50:58;9.38;;;5.30;;
36191;SDS011;22233;42.708;23.360;2022-12-07T11:55:57;13.60;;;6.53;;
36191;SDS011;22233;42.708;23.360;2022-12-07T12:06:21;13.88;;;6.75;;
36191;SDS011;22233;42.708;23.360;2022-12-07T12:20:26;9.68;;;5.88;;
36191;SDS011;22233;42.708;23.360;2022-12-07T12:25:52;10.75;;;6.13;;
36191;SDS011;22233;42.708;23.360;2022-12-07T12:33:46;11.88;;;6.72;;
36191;SDS011;22233;42.708;23.360;2022-12-07T12:38:48;11.55;;;6.22;;
36191;SDS011;22233;42.708;23.360;2022-12-07T12:41:59;13.77;;;7.15;;
36191;SDS011;22233;42.708;23.360;2022-12-07T12:58:40;10.80;;;6.78;;
36191;SDS011;22233;42.708;23.360;2022-12-07T13:03:53;14.38;;;7.20;;
36191;SDS011;22233;42.708;23.360;2022-12-07T13:09:00;14.02;;;6.57;;
36191;SDS011;22233;42.708;23.360;2022-12-07T13:11:33;12.93;;;7.38;;
36191;SDS011;22233;42.708;23.360;2022-12-07T13:17:08;10.40;;;6.50;;
36191;SDS011;22233;42.708;23.360;2022-12-07T13:20:00;12.90;;;5.93;;
36191;SDS011;22233;42.708;23.360;2022-12-07T13:25:02;13.00;;;6.45;;
36191;SDS011;22233;42.708;23.360;2022-12-07T13:27:32;11.05;;;5.35;;
36191;SDS011;22233;42.708;23.360;2022-12-07T13:32:26;10.48;;;5.03;;
36191;SDS011;22233;42.708;23.360;2022-12-07T13:37:25;10.52;;;4.90;;
36191;SDS011;22233;42.708;23.360;2022-12-07T13:40:00;11.95;;;5.53;;
36191;SDS011;22233;42.708;23.360;2022-12-07T13:42:43;12.02;;;6.43;;
36191;SDS011;22233;42.708;23.360;2022-12-07T13:45:22;11.25;;;6.43;;
36191;SDS011;22233;42.708;23.360;2022-12-07T13:48:10;11.38;;;6.20;;
36191;SDS011;22233;42.708;23.360;2022-12-07T13:50:42;12.38;;;6.72;;
36191;SDS011;22233;42.708;23.360;2022-12-07T13:53:11;15.35;;;6.03;;
36191;SDS011;22233;42.708;23.360;2022-12-07T13:55:43;12.57;;;6.65;;
36191;SDS011;22233;42.708;23.360;2022-12-07T13:58:10;8.95;;;5.75;;
36191;SDS011;22233;42.708;23.360;2022-12-07T14:00:35;10.13;;;6.38;;
36191;SDS011;22233;42.708;23.360;2022-12-07T14:03:19;12.32;;;5.90;;
36191;SDS011;22233;42.708;23.360;2022-12-07T14:06:02;9.02;;;6.45;;
36191;SDS011;22233;42.708;23.360;2022-12-07T14:08:40;11.45;;;6.72;;
36191;SDS011;22233;42.708;23.360;2022-12-07T14:11:06;13.93;;;6.72;;
36191;SDS011;22233;42.708;23.360;2022-12-07T14:13:44;15.40;;;6.35;;
36191;SDS011;22233;42.708;23.360;2022-12-07T14:16:27;10.80;;;6.40;;
36191;SDS011;22233;42.708;23.360;2022-12-07T14:18:56;11.75;;;5.93;;
36191;SDS011;22233;42.708;23.360;2022-12-07T14:21:27;13.57;;;6.78;;
36191;SDS011;22233;42.708;23.360;2022-12-07T14:26:47;11.20;;;6.70;;
36191;SDS011;22233;42.708;23.360;2022-12-07T14:29:20;10.13;;;5.07;;
36191;SDS011;22233;42.708;23.360;2022-12-07T14:31:49;13.88;;;6.35;;
36191;SDS011;22233;42.708;23.360;2022-12-07T14:34:16;12.07;;;6.45;;
36191;SDS011;22233;42.708;23.360;2022-12-07T14:36:41;12.32;;;5.13;;
36191;SDS011;22233;42.708;23.360;2022-12-07T14:39:06;8.15;;;5.15;;
36191;SDS011;22233;42.708;23.360;2022-12-07T14:41:32;10.85;;;6.07;;
36191;SDS011;22233;42.708;23.360;2022-12-07T14:44:16;10.80;;;6.45;;
36191;SDS011;22233;42.708;23.360;2022-12-07T14:46:42;11.70;;;5.53;;
36191;SDS011;22233;42.708;23.360;2022-12-07T14:49:08;11.00;;;7.00;;
36191;SDS011;22233;42.708;23.360;2022-12-07T14:51:33;12.57;;;7.18;;
36191;SDS011;22233;42.708;23.360;2022-12-07T14:54:03;12.52;;;6.70;;
36191;SDS011;22233;42.708;23.360;2022-12-07T14:56:30;11.35;;;5.95;;
36191;SDS011;22233;42.708;23.360;2022-12-07T14:58:55;14.02;;;6.88;;
36191;SDS011;22233;42.708;23.360;2022-12-07T15:01:21;12.13;;;7.30;;
36191;SDS011;22233;42.708;23.360;2022-12-07T15:03:46;15.05;;;6.95;;
36191;SDS011;22233;42.708;23.360;2022-12-07T15:06:16;23.80;;;11.32;;
36191;SDS011;22233;42.708;23.360;2022-12-07T15:08:43;14.35;;;8.10;;
36191;SDS011;22233;42.708;23.360;2022-12-07T15:11:14;14.52;;;7.90;;
36191;SDS011;22233;42.708;23.360;2022-12-07T15:13:41;14.05;;;9.48;;
36191;SDS011;22233;42.708;23.360;2022-12-07T15:16:25;14.77;;;8.25;;
36191;SDS011;22233;42.708;23.360;2022-12-07T15:18:50;10.98;;;7.88;;
36191;SDS011;22233;42.708;23.360;2022-12-07T15:21:16;14.88;;;7.63;;
36191;SDS011;22233;42.708;23.360;2022-12-07T15:23:42;11.60;;;6.93;;
36191;SDS011;22233;42.708;23.360;2022-12-07T15:26:07;13.10;;;7.15;;
36191;SDS011;22233;42.708;23.360;2022-12-07T15:28:35;15.20;;;8.60;;
36191;SDS011;22233;42.708;23.360;2022-12-07T15:31:01;20.77;;;9.10;;
36191;SDS011;22233;42.708;23.360;2022-12-07T15:33:26;18.85;;;8.57;;
36191;SDS011;22233;42.708;23.360;2022-12-07T15:35:51;20.05;;;9.27;;
36191;SDS011;22233;42.708;23.360;2022-12-07T15:38:17;17.77;;;9.82;;
36191;SDS011;22233;42.708;23.360;2022-12-07T15:40:42;21.95;;;10.85;;
36191;SDS011;22233;42.708;23.360;2022-12-07T15:43:11;20.33;;;11.45;;
36191;SDS011;22233;42.708;23.360;2022-12-07T15:45:55;26.27;;;13.57;;
36191;SDS011;22233;42.708;23.360;2022-12-07T15:48:20;23.80;;;14.50;;
36191;SDS011;22233;42.708;23.360;2022-12-07T15:50:46;19.30;;;12.98;;
36191;SDS011;22233;42.708;23.360;2022-12-07T15:53:11;22.38;;;13.68;;
36191;SDS011;22233;42.708;23.360;2022-12-07T15:55:40;29.48;;;15.05;;
36191;SDS011;22233;42.708;23.360;2022-12-07T15:58:05;28.50;;;13.73;;
36191;SDS011;22233;42.708;23.360;2022-12-07T16:00:31;26.42;;;13.52;;
36191;SDS011;22233;42.708;23.360;2022-12-07T16:02:57;24.23;;;14.27;;
36191;SDS011;22233;42.708;23.360;2022-12-07T16:05:22;21.40;;;12.50;;
36191;SDS011;22233;42.708;23.360;2022-12-07T16:07:47;24.15;;;13.32;;
36191;SDS011;22233;42.708;23.360;2022-12-07T16:10:13;28.92;;;14.63;;
36191;SDS011;22233;42.708;23.360;2022-12-07T16:12:38;30.50;;;15.23;;
36191;SDS011;22233;42.708;23.360;2022-12-07T16:15:04;28.60;;;15.95;;
36191;SDS011;22233;42.708;23.360;2022-12-07T16:17:31;24.60;;;14.35;;
36191;SDS011;22233;42.708;23.360;2022-12-07T16:19:57;29.10;;;14.47;;
36191;SDS011;22233;42.708;23.360;2022-12-07T16:22:23;23.48;;;13.10;;
36191;SDS011;22233;42.708;23.360;2022-12-07T16:24:48;24.20;;;11.98;;
36191;SDS011;22233;42.708;23.360;2022-12-07T16:27:13;22.25;;;10.20;;
36191;SDS011;22233;42.708;23.360;2022-12-07T16:29:39;17.85;;;9.70;;
36191;SDS011;22233;42.708;23.360;2022-12-07T16:32:04;18.67;;;10.52;;
36191;SDS011;22233;42.708;23.360;2022-12-07T16:34:30;19.05;;;10.00;;
36191;SDS011;22233;42.708;23.360;2022-12-07T16:36:55;14.75;;;8.82;;
36191;SDS011;22233;42.708;23.360;2022-12-07T16:39:21;18.85;;;9.05;;
36191;SDS011;22233;42.708;23.360;2022-12-07T16:41:46;18.25;;;9.60;;
36191;SDS011;22233;42.708;23.360;2022-12-07T16:44:12;17.40;;;8.77;;
36191;SDS011;22233;42.708;23.360;2022-12-07T16:46:38;14.38;;;8.75;;
36191;SDS011;22233;42.708;23.360;2022-12-07T16:49:04;24.38;;;11.63;;
36191;SDS011;22233;42.708;23.360;2022-12-07T16:51:30;15.85;;;9.07;;
36191;SDS011;22233;42.708;23.360;2022-12-07T16:53:56;15.50;;;9.55;;
36191;SDS011;22233;42.708;23.360;2022-12-07T16:56:21;14.90;;;8.00;;
36191;SDS011;22233;42.708;23.360;2022-12-07T16:58:46;14.63;;;8.05;;